sensor_id;sensor_type;location;lat;lon;timestamp;temperature;humidity
61765;DHT22;50188;48.114;-1.388;2022-07-22T00:00:48;20.10;73.20
61765;DHT22;50188;48.114;-1.388;2022-07-22T00:03:13;20.00;73.60
61765;DHT22;50188;48.114;-1.388;2022-07-22T00:05:39;20.00;73.50
61765;DHT22;50188;48.114;-1.388;2022-07-22T00:08:06;19.80;74.10
61765;DHT22;50188;48.114;-1.388;2022-07-22T00:10:31;19.80;74.10
61765;DHT22;50188;48.114;-1.388;2022-07-22T00:12:57;19.90;73.90
61765;DHT22;50188;48.114;-1.388;2022-07-22T00:15:23;20.00;73.70
61765;DHT22;50188;48.114;-1.388;2022-07-22T00:17:49;20.10;73.30
61765;DHT22;50188;48.114;-1.388;2022-07-22T00:20:15;20.10;73.30
61765;DHT22;50188;48.114;-1.388;2022-07-22T00:22:41;20.10;73.50
61765;DHT22;50188;48.114;-1.388;2022-07-22T00:25:07;20.10;73.50
61765;DHT22;50188;48.114;-1.388;2022-07-22T00:27:33;20.00;73.90
61765;DHT22;50188;48.114;-1.388;2022-07-22T00:29:59;20.10;73.60
61765;DHT22;50188;48.114;-1.388;2022-07-22T00:32:25;20.00;74.20
61765;DHT22;50188;48.114;-1.388;2022-07-22T00:34:51;19.90;74.60
61765;DHT22;50188;48.114;-1.388;2022-07-22T00:37:17;19.90;74.40
61765;DHT22;50188;48.114;-1.388;2022-07-22T00:39:43;19.90;74.50
61765;DHT22;50188;48.114;-1.388;2022-07-22T00:42:09;20.00;74.20
61765;DHT22;50188;48.114;-1.388;2022-07-22T00:44:34;20.00;74.00
61765;DHT22;50188;48.114;-1.388;2022-07-22T00:47:00;20.00;73.90
61765;DHT22;50188;48.114;-1.388;2022-07-22T00:49:26;20.10;73.90
61765;DHT22;50188;48.114;-1.388;2022-07-22T00:51:53;20.00;73.90
61765;DHT22;50188;48.114;-1.388;2022-07-22T00:54:19;20.10;73.80
61765;DHT22;50188;48.114;-1.388;2022-07-22T00:56:45;20.10;73.70
61765;DHT22;50188;48.114;-1.388;2022-07-22T00:59:12;20.10;73.60
61765;DHT22;50188;48.114;-1.388;2022-07-22T01:01:38;20.10;73.30
61765;DHT22;50188;48.114;-1.388;2022-07-22T01:04:14;20.00;73.60
61765;DHT22;50188;48.114;-1.388;2022-07-22T01:06:44;20.00;74.00
61765;DHT22;50188;48.114;-1.388;2022-07-22T01:09:11;20.00;74.00
61765;DHT22;50188;48.114;-1.388;2022-07-22T01:11:37;20.10;73.90
61765;DHT22;50188;48.114;-1.388;2022-07-22T01:14:19;20.00;74.10
61765;DHT22;50188;48.114;-1.388;2022-07-22T01:16:47;20.00;74.50
61765;DHT22;50188;48.114;-1.388;2022-07-22T01:19:13;20.00;74.50
61765;DHT22;50188;48.114;-1.388;2022-07-22T01:21:58;19.70;75.40
61765;DHT22;50188;48.114;-1.388;2022-07-22T01:24:24;19.50;76.60
61765;DHT22;50188;48.114;-1.388;2022-07-22T01:26:49;19.30;77.60
61765;DHT22;50188;48.114;-1.388;2022-07-22T01:29:16;19.30;78.00
61765;DHT22;50188;48.114;-1.388;2022-07-22T01:31:44;19.20;78.40
61765;DHT22;50188;48.114;-1.388;2022-07-22T01:34:10;19.20;78.80
61765;DHT22;50188;48.114;-1.388;2022-07-22T01:36:35;19.20;79.20
61765;DHT22;50188;48.114;-1.388;2022-07-22T01:39:01;19.20;79.40
61765;DHT22;50188;48.114;-1.388;2022-07-22T01:41:27;19.20;79.40
61765;DHT22;50188;48.114;-1.388;2022-07-22T01:43:53;19.20;79.50
61765;DHT22;50188;48.114;-1.388;2022-07-22T01:46:18;19.20;79.20
61765;DHT22;50188;48.114;-1.388;2022-07-22T01:48:44;19.30;79.20
61765;DHT22;50188;48.114;-1.388;2022-07-22T01:51:10;19.40;79.00
61765;DHT22;50188;48.114;-1.388;2022-07-22T01:53:36;19.40;78.70
61765;DHT22;50188;48.114;-1.388;2022-07-22T01:56:02;19.40;79.00
61765;DHT22;50188;48.114;-1.388;2022-07-22T01:58:28;19.40;78.90
61765;DHT22;50188;48.114;-1.388;2022-07-22T02:00:54;19.50;78.90
61765;DHT22;50188;48.114;-1.388;2022-07-22T02:03:19;19.50;78.70
61765;DHT22;50188;48.114;-1.388;2022-07-22T02:05:45;19.50;78.90
61765;DHT22;50188;48.114;-1.388;2022-07-22T02:08:11;19.30;79.30
61765;DHT22;50188;48.114;-1.388;2022-07-22T02:10:38;19.30;79.70
61765;DHT22;50188;48.114;-1.388;2022-07-22T02:13:04;19.40;80.00
61765;DHT22;50188;48.114;-1.388;2022-07-22T02:15:30;19.30;79.90
61765;DHT22;50188;48.114;-1.388;2022-07-22T02:17:56;19.30;80.00
61765;DHT22;50188;48.114;-1.388;2022-07-22T02:20:22;19.30;80.20
61765;DHT22;50188;48.114;-1.388;2022-07-22T02:22:48;19.40;80.20
61765;DHT22;50188;48.114;-1.388;2022-07-22T02:25:14;19.50;79.90
61765;DHT22;50188;48.114;-1.388;2022-07-22T02:27:41;19.40;79.80
61765;DHT22;50188;48.114;-1.388;2022-07-22T02:30:08;19.30;80.30
61765;DHT22;50188;48.114;-1.388;2022-07-22T02:32:34;19.20;80.90
61765;DHT22;50188;48.114;-1.388;2022-07-22T02:35:00;19.40;80.90
61765;DHT22;50188;48.114;-1.388;2022-07-22T02:37:26;19.20;81.30
61765;DHT22;50188;48.114;-1.388;2022-07-22T02:39:52;19.20;81.40
61765;DHT22;50188;48.114;-1.388;2022-07-22T02:42:18;19.20;81.70
61765;DHT22;50188;48.114;-1.388;2022-07-22T02:44:43;19.20;81.50
61765;DHT22;50188;48.114;-1.388;2022-07-22T02:47:09;19.20;81.90
61765;DHT22;50188;48.114;-1.388;2022-07-22T02:49:34;19.20;82.00
61765;DHT22;50188;48.114;-1.388;2022-07-22T02:52:00;19.20;81.70
61765;DHT22;50188;48.114;-1.388;2022-07-22T02:54:26;19.20;81.80
61765;DHT22;50188;48.114;-1.388;2022-07-22T02:56:52;19.20;81.80
61765;DHT22;50188;48.114;-1.388;2022-07-22T02:59:17;19.20;81.80
61765;DHT22;50188;48.114;-1.388;2022-07-22T03:01:43;19.20;81.90
61765;DHT22;50188;48.114;-1.388;2022-07-22T03:04:09;19.20;81.90
61765;DHT22;50188;48.114;-1.388;2022-07-22T03:06:35;19.30;81.90
61765;DHT22;50188;48.114;-1.388;2022-07-22T03:09:00;19.20;82.20
61765;DHT22;50188;48.114;-1.388;2022-07-22T03:11:26;19.00;82.60
61765;DHT22;50188;48.114;-1.388;2022-07-22T03:13:52;19.10;82.50
61765;DHT22;50188;48.114;-1.388;2022-07-22T03:16:18;19.00;82.80
61765;DHT22;50188;48.114;-1.388;2022-07-22T03:18:44;19.10;82.90
61765;DHT22;50188;48.114;-1.388;2022-07-22T03:21:10;19.00;82.80
61765;DHT22;50188;48.114;-1.388;2022-07-22T03:23:36;19.00;82.80
61765;DHT22;50188;48.114;-1.388;2022-07-22T03:26:11;19.10;82.70
61765;DHT22;50188;48.114;-1.388;2022-07-22T03:28:37;19.00;82.70
61765;DHT22;50188;48.114;-1.388;2022-07-22T03:31:03;19.00;82.90
61765;DHT22;50188;48.114;-1.388;2022-07-22T03:33:32;19.00;83.00
61765;DHT22;50188;48.114;-1.388;2022-07-22T03:35:57;19.00;82.90
61765;DHT22;50188;48.114;-1.388;2022-07-22T03:38:23;18.90;82.90
61765;DHT22;50188;48.114;-1.388;2022-07-22T03:40:49;19.10;82.70
61765;DHT22;50188;48.114;-1.388;2022-07-22T03:43:15;19.00;82.60
61765;DHT22;50188;48.114;-1.388;2022-07-22T03:45:41;19.00;82.60
61765;DHT22;50188;48.114;-1.388;2022-07-22T03:48:07;19.00;82.60
61765;DHT22;50188;48.114;-1.388;2022-07-22T03:50:33;19.00;82.70
61765;DHT22;50188;48.114;-1.388;2022-07-22T03:52:58;19.10;82.30
61765;DHT22;50188;48.114;-1.388;2022-07-22T03:55:24;19.00;82.50
61765;DHT22;50188;48.114;-1.388;2022-07-22T03:57:49;19.00;82.50
61765;DHT22;50188;48.114;-1.388;2022-07-22T04:00:15;19.00;82.50
61765;DHT22;50188;48.114;-1.388;2022-07-22T04:02:41;19.00;82.70
61765;DHT22;50188;48.114;-1.388;2022-07-22T04:05:07;18.80;83.30
61765;DHT22;50188;48.114;-1.388;2022-07-22T04:07:32;18.80;83.60
61765;DHT22;50188;48.114;-1.388;2022-07-22T04:10:06;18.80;83.60
61765;DHT22;50188;48.114;-1.388;2022-07-22T04:12:37;18.90;84.30
61765;DHT22;50188;48.114;-1.388;2022-07-22T04:15:04;18.90;83.20
61765;DHT22;50188;48.114;-1.388;2022-07-22T04:17:30;18.80;83.40
61765;DHT22;50188;48.114;-1.388;2022-07-22T04:19:56;18.80;83.40
61765;DHT22;50188;48.114;-1.388;2022-07-22T04:22:23;18.90;83.30
61765;DHT22;50188;48.114;-1.388;2022-07-22T04:24:49;18.90;83.00
61765;DHT22;50188;48.114;-1.388;2022-07-22T04:27:14;19.00;82.80
61765;DHT22;50188;48.114;-1.388;2022-07-22T04:29:40;19.00;82.70
61765;DHT22;50188;48.114;-1.388;2022-07-22T04:32:06;19.00;82.80
61765;DHT22;50188;48.114;-1.388;2022-07-22T04:34:31;19.10;82.60
61765;DHT22;50188;48.114;-1.388;2022-07-22T04:36:57;19.10;82.40
61765;DHT22;50188;48.114;-1.388;2022-07-22T04:39:23;19.10;82.50
61765;DHT22;50188;48.114;-1.388;2022-07-22T04:41:49;19.20;82.20
61765;DHT22;50188;48.114;-1.388;2022-07-22T04:44:17;19.20;82.10
61765;DHT22;50188;48.114;-1.388;2022-07-22T04:46:43;19.20;82.10
61765;DHT22;50188;48.114;-1.388;2022-07-22T04:49:09;19.20;82.00
61765;DHT22;50188;48.114;-1.388;2022-07-22T04:51:35;19.30;81.90
61765;DHT22;50188;48.114;-1.388;2022-07-22T04:54:01;19.30;81.80
61765;DHT22;50188;48.114;-1.388;2022-07-22T04:56:29;19.30;81.50
61765;DHT22;50188;48.114;-1.388;2022-07-22T04:58:55;19.20;81.60
61765;DHT22;50188;48.114;-1.388;2022-07-22T05:01:21;18.90;82.10
61765;DHT22;50188;48.114;-1.388;2022-07-22T05:03:47;18.80;82.70
61765;DHT22;50188;48.114;-1.388;2022-07-22T05:06:13;18.90;82.90
61765;DHT22;50188;48.114;-1.388;2022-07-22T05:08:38;18.90;83.00
61765;DHT22;50188;48.114;-1.388;2022-07-22T05:11:04;18.80;83.10
61765;DHT22;50188;48.114;-1.388;2022-07-22T05:13:30;18.90;83.20
61765;DHT22;50188;48.114;-1.388;2022-07-22T05:15:55;18.90;83.00
61765;DHT22;50188;48.114;-1.388;2022-07-22T05:18:21;19.00;82.80
61765;DHT22;50188;48.114;-1.388;2022-07-22T05:20:47;19.10;82.20
61765;DHT22;50188;48.114;-1.388;2022-07-22T05:23:12;19.20;82.00
61765;DHT22;50188;48.114;-1.388;2022-07-22T05:25:38;19.20;81.60
61765;DHT22;50188;48.114;-1.388;2022-07-22T05:28:04;19.10;81.80
61765;DHT22;50188;48.114;-1.388;2022-07-22T05:30:29;19.10;81.90
61765;DHT22;50188;48.114;-1.388;2022-07-22T05:32:55;19.10;81.80
61765;DHT22;50188;48.114;-1.388;2022-07-22T05:35:21;19.10;81.70
61765;DHT22;50188;48.114;-1.388;2022-07-22T05:37:47;19.30;81.30
61765;DHT22;50188;48.114;-1.388;2022-07-22T05:40:13;19.30;81.20
61765;DHT22;50188;48.114;-1.388;2022-07-22T05:42:38;19.30;81.30
61765;DHT22;50188;48.114;-1.388;2022-07-22T05:45:04;19.30;81.40
61765;DHT22;50188;48.114;-1.388;2022-07-22T05:47:30;19.50;81.10
61765;DHT22;50188;48.114;-1.388;2022-07-22T05:49:56;19.60;81.10
61765;DHT22;50188;48.114;-1.388;2022-07-22T05:52:21;19.80;80.70
61765;DHT22;50188;48.114;-1.388;2022-07-22T05:54:47;19.90;80.20
61765;DHT22;50188;48.114;-1.388;2022-07-22T05:57:13;20.10;79.90
61765;DHT22;50188;48.114;-1.388;2022-07-22T05:59:39;20.20;79.10
61765;DHT22;50188;48.114;-1.388;2022-07-22T06:02:06;20.40;78.70
61765;DHT22;50188;48.114;-1.388;2022-07-22T06:04:32;20.50;78.10
61765;DHT22;50188;48.114;-1.388;2022-07-22T06:06:58;20.50;78.70
61765;DHT22;50188;48.114;-1.388;2022-07-22T06:09:23;20.40;77.50
61765;DHT22;50188;48.114;-1.388;2022-07-22T06:11:49;20.50;77.70
61765;DHT22;50188;48.114;-1.388;2022-07-22T06:14:15;20.50;77.20
61765;DHT22;50188;48.114;-1.388;2022-07-22T06:16:41;20.70;76.90
61765;DHT22;50188;48.114;-1.388;2022-07-22T06:19:07;20.70;76.40
61765;DHT22;50188;48.114;-1.388;2022-07-22T06:21:33;20.80;76.30
61765;DHT22;50188;48.114;-1.388;2022-07-22T06:23:59;20.90;76.20
61765;DHT22;50188;48.114;-1.388;2022-07-22T06:26:25;21.00;75.50
61765;DHT22;50188;48.114;-1.388;2022-07-22T06:28:51;21.00;75.80
61765;DHT22;50188;48.114;-1.388;2022-07-22T06:31:17;21.20;75.50
61765;DHT22;50188;48.114;-1.388;2022-07-22T06:33:43;21.10;75.00
61765;DHT22;50188;48.114;-1.388;2022-07-22T06:36:09;21.10;75.30
61765;DHT22;50188;48.114;-1.388;2022-07-22T06:38:35;21.10;75.10
61765;DHT22;50188;48.114;-1.388;2022-07-22T06:41:01;21.10;75.20
61765;DHT22;50188;48.114;-1.388;2022-07-22T06:43:27;21.10;75.30
61765;DHT22;50188;48.114;-1.388;2022-07-22T06:45:54;21.00;75.00
61765;DHT22;50188;48.114;-1.388;2022-07-22T06:48:20;21.00;75.00
61765;DHT22;50188;48.114;-1.388;2022-07-22T06:50:46;21.10;75.20
61765;DHT22;50188;48.114;-1.388;2022-07-22T06:53:12;20.90;75.50
61765;DHT22;50188;48.114;-1.388;2022-07-22T06:55:39;21.00;76.40
61765;DHT22;50188;48.114;-1.388;2022-07-22T06:58:04;21.00;75.80
61765;DHT22;50188;48.114;-1.388;2022-07-22T07:00:31;20.80;75.50
61765;DHT22;50188;48.114;-1.388;2022-07-22T07:03:01;20.60;76.30
61765;DHT22;50188;48.114;-1.388;2022-07-22T07:05:27;20.50;77.00
61765;DHT22;50188;48.114;-1.388;2022-07-22T07:07:55;20.40;77.40
61765;DHT22;50188;48.114;-1.388;2022-07-22T07:10:21;20.50;77.30
61765;DHT22;50188;48.114;-1.388;2022-07-22T07:12:47;20.60;77.60
61765;DHT22;50188;48.114;-1.388;2022-07-22T07:15:13;20.70;77.20
61765;DHT22;50188;48.114;-1.388;2022-07-22T07:17:49;20.70;77.00
61765;DHT22;50188;48.114;-1.388;2022-07-22T07:20:15;20.90;77.60
61765;DHT22;50188;48.114;-1.388;2022-07-22T07:22:41;20.90;77.10
61765;DHT22;50188;48.114;-1.388;2022-07-22T07:25:08;21.00;77.50
61765;DHT22;50188;48.114;-1.388;2022-07-22T07:27:34;21.20;76.10
61765;DHT22;50188;48.114;-1.388;2022-07-22T07:30:00;21.60;75.10
61765;DHT22;50188;48.114;-1.388;2022-07-22T07:32:27;21.60;74.30
61765;DHT22;50188;48.114;-1.388;2022-07-22T07:34:53;21.40;74.20
61765;DHT22;50188;48.114;-1.388;2022-07-22T07:37:18;21.90;74.80
61765;DHT22;50188;48.114;-1.388;2022-07-22T07:39:44;22.70;73.70
61765;DHT22;50188;48.114;-1.388;2022-07-22T07:42:10;23.80;70.00
61765;DHT22;50188;48.114;-1.388;2022-07-22T07:44:36;24.70;66.40
61765;DHT22;50188;48.114;-1.388;2022-07-22T07:47:02;25.50;64.50
61765;DHT22;50188;48.114;-1.388;2022-07-22T07:49:28;26.10;63.20
61765;DHT22;50188;48.114;-1.388;2022-07-22T07:51:54;26.40;59.70
61765;DHT22;50188;48.114;-1.388;2022-07-22T07:54:20;26.70;57.80
61765;DHT22;50188;48.114;-1.388;2022-07-22T07:56:46;27.20;57.00
61765;DHT22;50188;48.114;-1.388;2022-07-22T07:59:12;28.10;55.70
61765;DHT22;50188;48.114;-1.388;2022-07-22T08:01:37;28.30;53.50
61765;DHT22;50188;48.114;-1.388;2022-07-22T08:04:03;27.80;53.10
61765;DHT22;50188;48.114;-1.388;2022-07-22T08:06:29;27.20;54.50
61765;DHT22;50188;48.114;-1.388;2022-07-22T08:08:55;26.60;54.90
61765;DHT22;50188;48.114;-1.388;2022-07-22T08:11:21;26.10;55.70
61765;DHT22;50188;48.114;-1.388;2022-07-22T08:13:47;26.10;57.90
61765;DHT22;50188;48.114;-1.388;2022-07-22T08:16:13;25.50;57.30
61765;DHT22;50188;48.114;-1.388;2022-07-22T08:18:39;25.70;58.80
61765;DHT22;50188;48.114;-1.388;2022-07-22T08:21:05;25.20;58.10
61765;DHT22;50188;48.114;-1.388;2022-07-22T08:23:33;25.00;59.20
61765;DHT22;50188;48.114;-1.388;2022-07-22T08:25:59;24.90;60.10
61765;DHT22;50188;48.114;-1.388;2022-07-22T08:28:26;24.70;60.70
61765;DHT22;50188;48.114;-1.388;2022-07-22T08:30:52;24.70;61.60
61765;DHT22;50188;48.114;-1.388;2022-07-22T08:33:19;24.80;61.50
61765;DHT22;50188;48.114;-1.388;2022-07-22T08:35:44;24.70;61.30
61765;DHT22;50188;48.114;-1.388;2022-07-22T08:38:10;24.90;60.90
61765;DHT22;50188;48.114;-1.388;2022-07-22T08:40:36;24.80;61.00
61765;DHT22;50188;48.114;-1.388;2022-07-22T08:43:03;24.60;61.20
61765;DHT22;50188;48.114;-1.388;2022-07-22T08:45:30;24.20;62.00
61765;DHT22;50188;48.114;-1.388;2022-07-22T08:47:56;24.00;62.90
61765;DHT22;50188;48.114;-1.388;2022-07-22T08:50:32;23.80;63.60
61765;DHT22;50188;48.114;-1.388;2022-07-22T08:52:58;23.60;64.50
61765;DHT22;50188;48.114;-1.388;2022-07-22T08:55:24;23.40;65.10
61765;DHT22;50188;48.114;-1.388;2022-07-22T08:57:51;23.40;64.90
61765;DHT22;50188;48.114;-1.388;2022-07-22T09:00:21;23.20;66.30
61765;DHT22;50188;48.114;-1.388;2022-07-22T09:02:48;23.10;66.90
61765;DHT22;50188;48.114;-1.388;2022-07-22T09:05:15;23.20;67.90
61765;DHT22;50188;48.114;-1.388;2022-07-22T09:07:43;23.30;67.70
61765;DHT22;50188;48.114;-1.388;2022-07-22T09:10:14;23.20;67.80
61765;DHT22;50188;48.114;-1.388;2022-07-22T09:12:58;23.20;67.90
61765;DHT22;50188;48.114;-1.388;2022-07-22T09:15:26;23.10;68.10
61765;DHT22;50188;48.114;-1.388;2022-07-22T09:17:53;23.20;68.30
61765;DHT22;50188;48.114;-1.388;2022-07-22T09:20:19;23.10;69.30
61765;DHT22;50188;48.114;-1.388;2022-07-22T09:22:47;23.10;70.20
61765;DHT22;50188;48.114;-1.388;2022-07-22T09:25:32;23.00;70.40
61765;DHT22;50188;48.114;-1.388;2022-07-22T09:28:15;23.10;70.70
61765;DHT22;50188;48.114;-1.388;2022-07-22T09:30:52;23.10;70.00
61765;DHT22;50188;48.114;-1.388;2022-07-22T09:33:19;22.90;70.50
61765;DHT22;50188;48.114;-1.388;2022-07-22T09:35:46;22.60;71.20
61765;DHT22;50188;48.114;-1.388;2022-07-22T09:38:13;22.40;72.80
61765;DHT22;50188;48.114;-1.388;2022-07-22T09:40:42;22.40;74.30
61765;DHT22;50188;48.114;-1.388;2022-07-22T09:43:16;22.30;74.40
61765;DHT22;50188;48.114;-1.388;2022-07-22T09:45:54;22.20;75.70
61765;DHT22;50188;48.114;-1.388;2022-07-22T09:48:23;22.30;76.10
61765;DHT22;50188;48.114;-1.388;2022-07-22T09:50:50;22.30;75.70
61765;DHT22;50188;48.114;-1.388;2022-07-22T09:53:18;22.20;75.90
61765;DHT22;50188;48.114;-1.388;2022-07-22T09:55:45;22.20;76.60
61765;DHT22;50188;48.114;-1.388;2022-07-22T09:58:11;22.10;76.50
61765;DHT22;50188;48.114;-1.388;2022-07-22T10:00:38;22.00;77.00
61765;DHT22;50188;48.114;-1.388;2022-07-22T10:03:06;21.80;78.70
61765;DHT22;50188;48.114;-1.388;2022-07-22T10:05:41;21.90;79.10
61765;DHT22;50188;48.114;-1.388;2022-07-22T10:08:08;22.00;79.10
61765;DHT22;50188;48.114;-1.388;2022-07-22T10:10:39;22.00;80.30
61765;DHT22;50188;48.114;-1.388;2022-07-22T10:13:06;22.00;80.00
61765;DHT22;50188;48.114;-1.388;2022-07-22T10:15:33;22.20;80.40
61765;DHT22;50188;48.114;-1.388;2022-07-22T10:18:05;22.30;80.10
61765;DHT22;50188;48.114;-1.388;2022-07-22T10:20:33;22.10;80.60
61765;DHT22;50188;48.114;-1.388;2022-07-22T10:23:01;22.10;80.40
61765;DHT22;50188;48.114;-1.388;2022-07-22T10:25:29;22.00;80.70
61765;DHT22;50188;48.114;-1.388;2022-07-22T10:28:02;21.90;81.20
61765;DHT22;50188;48.114;-1.388;2022-07-22T10:30:34;22.00;81.40
61765;DHT22;50188;48.114;-1.388;2022-07-22T10:33:07;22.00;80.80
61765;DHT22;50188;48.114;-1.388;2022-07-22T10:35:35;21.80;81.60
61765;DHT22;50188;48.114;-1.388;2022-07-22T10:38:04;21.90;81.60
61765;DHT22;50188;48.114;-1.388;2022-07-22T10:40:32;21.90;81.50
61765;DHT22;50188;48.114;-1.388;2022-07-22T10:43:10;21.70;81.80
61765;DHT22;50188;48.114;-1.388;2022-07-22T10:45:45;21.70;82.40
61765;DHT22;50188;48.114;-1.388;2022-07-22T10:48:17;21.70;82.50
61765;DHT22;50188;48.114;-1.388;2022-07-22T10:50:49;21.70;83.40
61765;DHT22;50188;48.114;-1.388;2022-07-22T10:53:39;21.70;83.50
61765;DHT22;50188;48.114;-1.388;2022-07-22T10:59:11;21.50;84.50
61765;DHT22;50188;48.114;-1.388;2022-07-22T11:01:39;21.50;84.80
61765;DHT22;50188;48.114;-1.388;2022-07-22T11:04:16;21.50;85.00
61765;DHT22;50188;48.114;-1.388;2022-07-22T11:06:44;21.30;85.90
61765;DHT22;50188;48.114;-1.388;2022-07-22T11:09:12;21.20;86.30
61765;DHT22;50188;48.114;-1.388;2022-07-22T11:11:47;21.20;87.00
61765;DHT22;50188;48.114;-1.388;2022-07-22T11:14:24;21.20;87.40
61765;DHT22;50188;48.114;-1.388;2022-07-22T11:17:06;21.30;87.40
61765;DHT22;50188;48.114;-1.388;2022-07-22T11:19:33;21.20;88.00
61765;DHT22;50188;48.114;-1.388;2022-07-22T11:22:05;21.10;88.30
61765;DHT22;50188;48.114;-1.388;2022-07-22T11:24:31;21.30;88.70
61765;DHT22;50188;48.114;-1.388;2022-07-22T11:26:58;21.30;87.70
61765;DHT22;50188;48.114;-1.388;2022-07-22T11:29:36;21.40;88.40
61765;DHT22;50188;48.114;-1.388;2022-07-22T11:32:08;21.50;87.80
61765;DHT22;50188;48.114;-1.388;2022-07-22T11:34:43;21.70;87.70
61765;DHT22;50188;48.114;-1.388;2022-07-22T11:37:12;21.70;87.80
61765;DHT22;50188;48.114;-1.388;2022-07-22T11:39:38;21.70;87.70
61765;DHT22;50188;48.114;-1.388;2022-07-22T11:42:05;21.50;88.30
61765;DHT22;50188;48.114;-1.388;2022-07-22T11:44:33;21.50;88.10
61765;DHT22;50188;48.114;-1.388;2022-07-22T11:47:00;21.50;88.80
61765;DHT22;50188;48.114;-1.388;2022-07-22T11:49:28;21.20;89.00
61765;DHT22;50188;48.114;-1.388;2022-07-22T11:51:54;21.20;89.40
61765;DHT22;50188;48.114;-1.388;2022-07-22T11:54:20;21.30;90.20
61765;DHT22;50188;48.114;-1.388;2022-07-22T11:56:46;21.20;89.90
61765;DHT22;50188;48.114;-1.388;2022-07-22T11:59:14;21.40;89.50
61765;DHT22;50188;48.114;-1.388;2022-07-22T12:01:40;21.50;90.00
61765;DHT22;50188;48.114;-1.388;2022-07-22T12:04:11;21.50;89.40
61765;DHT22;50188;48.114;-1.388;2022-07-22T12:06:41;21.70;89.70
61765;DHT22;50188;48.114;-1.388;2022-07-22T12:09:09;21.80;88.20
61765;DHT22;50188;48.114;-1.388;2022-07-22T12:11:39;21.80;88.20
61765;DHT22;50188;48.114;-1.388;2022-07-22T12:14:11;21.70;88.20
61765;DHT22;50188;48.114;-1.388;2022-07-22T12:16:38;21.70;88.80
61765;DHT22;50188;48.114;-1.388;2022-07-22T12:19:09;21.50;89.50
61765;DHT22;50188;48.114;-1.388;2022-07-22T12:21:51;21.70;89.20
61765;DHT22;50188;48.114;-1.388;2022-07-22T12:24:29;21.60;89.20
61765;DHT22;50188;48.114;-1.388;2022-07-22T12:27:01;21.70;90.10
61765;DHT22;50188;48.114;-1.388;2022-07-22T12:29:43;21.70;90.40
61765;DHT22;50188;48.114;-1.388;2022-07-22T12:32:15;21.80;90.20
61765;DHT22;50188;48.114;-1.388;2022-07-22T12:34:56;21.90;89.60
61765;DHT22;50188;48.114;-1.388;2022-07-22T12:37:31;21.90;88.90
61765;DHT22;50188;48.114;-1.388;2022-07-22T12:40:00;21.90;88.30
61765;DHT22;50188;48.114;-1.388;2022-07-22T12:42:32;21.80;88.30
61765;DHT22;50188;48.114;-1.388;2022-07-22T12:45:10;21.60;88.40
61765;DHT22;50188;48.114;-1.388;2022-07-22T12:47:45;21.80;88.30
61765;DHT22;50188;48.114;-1.388;2022-07-22T12:50:37;21.80;88.80
61765;DHT22;50188;48.114;-1.388;2022-07-22T12:53:06;21.70;88.50
61765;DHT22;50188;48.114;-1.388;2022-07-22T12:55:35;21.70;88.20
61765;DHT22;50188;48.114;-1.388;2022-07-22T12:58:03;21.60;87.60
61765;DHT22;50188;48.114;-1.388;2022-07-22T13:00:33;21.60;88.20
61765;DHT22;50188;48.114;-1.388;2022-07-22T13:02:59;21.80;88.30
61765;DHT22;50188;48.114;-1.388;2022-07-22T13:05:25;21.70;88.10
61765;DHT22;50188;48.114;-1.388;2022-07-22T13:07:52;21.90;88.60
61765;DHT22;50188;48.114;-1.388;2022-07-22T13:10:20;21.80;87.90
61765;DHT22;50188;48.114;-1.388;2022-07-22T13:12:47;22.00;88.20
61765;DHT22;50188;48.114;-1.388;2022-07-22T13:15:12;22.10;87.80
61765;DHT22;50188;48.114;-1.388;2022-07-22T13:17:39;22.20;86.90
61765;DHT22;50188;48.114;-1.388;2022-07-22T13:20:06;22.00;85.70
61765;DHT22;50188;48.114;-1.388;2022-07-22T13:22:32;22.00;86.10
61765;DHT22;50188;48.114;-1.388;2022-07-22T13:24:57;22.10;86.20
61765;DHT22;50188;48.114;-1.388;2022-07-22T13:27:23;22.10;85.90
61765;DHT22;50188;48.114;-1.388;2022-07-22T13:29:49;22.00;85.80
61765;DHT22;50188;48.114;-1.388;2022-07-22T13:32:14;21.90;85.60
61765;DHT22;50188;48.114;-1.388;2022-07-22T13:34:40;22.10;85.50
61765;DHT22;50188;48.114;-1.388;2022-07-22T13:37:06;22.00;85.10
61765;DHT22;50188;48.114;-1.388;2022-07-22T13:39:32;22.00;85.30
61765;DHT22;50188;48.114;-1.388;2022-07-22T13:41:57;21.90;85.10
61765;DHT22;50188;48.114;-1.388;2022-07-22T13:44:23;21.80;85.40
61765;DHT22;50188;48.114;-1.388;2022-07-22T13:46:49;21.80;85.40
61765;DHT22;50188;48.114;-1.388;2022-07-22T13:49:14;21.70;85.50
61765;DHT22;50188;48.114;-1.388;2022-07-22T13:51:40;21.70;85.40
61765;DHT22;50188;48.114;-1.388;2022-07-22T13:54:06;21.70;86.40
61765;DHT22;50188;48.114;-1.388;2022-07-22T13:56:33;21.70;85.50
61765;DHT22;50188;48.114;-1.388;2022-07-22T13:58:59;21.70;85.60
61765;DHT22;50188;48.114;-1.388;2022-07-22T14:01:25;21.60;85.60
61765;DHT22;50188;48.114;-1.388;2022-07-22T14:03:50;21.50;86.10
61765;DHT22;50188;48.114;-1.388;2022-07-22T14:06:16;21.60;86.50
61765;DHT22;50188;48.114;-1.388;2022-07-22T14:08:42;21.60;85.70
61765;DHT22;50188;48.114;-1.388;2022-07-22T14:11:08;21.50;85.70
61765;DHT22;50188;48.114;-1.388;2022-07-22T14:13:34;21.50;85.30
61765;DHT22;50188;48.114;-1.388;2022-07-22T14:15:59;21.60;85.00
61765;DHT22;50188;48.114;-1.388;2022-07-22T14:18:45;21.50;84.60
61765;DHT22;50188;48.114;-1.388;2022-07-22T14:21:11;21.40;84.60
61765;DHT22;50188;48.114;-1.388;2022-07-22T14:23:36;21.60;84.60
61765;DHT22;50188;48.114;-1.388;2022-07-22T14:26:02;21.60;84.30
61765;DHT22;50188;48.114;-1.388;2022-07-22T14:28:28;21.70;84.50
61765;DHT22;50188;48.114;-1.388;2022-07-22T14:30:53;21.50;83.50
61765;DHT22;50188;48.114;-1.388;2022-07-22T14:33:19;21.50;84.20
61765;DHT22;50188;48.114;-1.388;2022-07-22T14:35:45;21.60;83.90
61765;DHT22;50188;48.114;-1.388;2022-07-22T14:38:10;21.50;84.20
61765;DHT22;50188;48.114;-1.388;2022-07-22T14:40:36;21.60;84.10
61765;DHT22;50188;48.114;-1.388;2022-07-22T14:43:02;21.60;84.00
61765;DHT22;50188;48.114;-1.388;2022-07-22T14:45:27;21.70;83.70
61765;DHT22;50188;48.114;-1.388;2022-07-22T14:47:53;21.60;83.60
61765;DHT22;50188;48.114;-1.388;2022-07-22T14:50:19;21.60;84.20
61765;DHT22;50188;48.114;-1.388;2022-07-22T14:52:45;21.60;84.20
61765;DHT22;50188;48.114;-1.388;2022-07-22T14:55:10;21.70;83.90
61765;DHT22;50188;48.114;-1.388;2022-07-22T14:57:36;21.70;83.70
61765;DHT22;50188;48.114;-1.388;2022-07-22T15:00:02;21.60;83.10
61765;DHT22;50188;48.114;-1.388;2022-07-22T15:02:28;21.70;84.10
61765;DHT22;50188;48.114;-1.388;2022-07-22T15:04:54;21.50;83.40
61765;DHT22;50188;48.114;-1.388;2022-07-22T15:07:19;21.50;84.30
61765;DHT22;50188;48.114;-1.388;2022-07-22T15:09:45;21.70;85.10
61765;DHT22;50188;48.114;-1.388;2022-07-22T15:12:11;21.80;84.60
61765;DHT22;50188;48.114;-1.388;2022-07-22T15:14:37;21.80;83.90
61765;DHT22;50188;48.114;-1.388;2022-07-22T15:17:03;21.80;84.00
61765;DHT22;50188;48.114;-1.388;2022-07-22T15:19:29;21.80;83.90